Time;durP1;ratioP1;P1;durP2;ratioP2;P2;SDS_P1;SDS_P2;PMS_P1;PMS_P2;Temp;Humidity;BMP_temperature;BMP_pressure;BME280_temperature;BME280_humidity;BME280_pressure;Samples;Min_cycle;Max_cycle;Signal;HPM_P1;HPM_P2
2023/08/19 00:02:43;;;;;;;0.35;0.35;;;;;;;31.61;100.00;101187.66;10442859;28;20055;-81
2023/08/19 00:07:44;;;;;;;0.57;0.32;;;;;;;31.77;100.00;101181.47;10426160;28;20049;-81
2023/08/19 00:12:46;;;;;;;1.63;0.80;;;;;;;32.07;100.00;101175.25;10442891;28;20041;-81
2023/08/19 00:17:48;;;;;;;1.08;0.70;;;;;;;32.28;100.00;101181.09;10442403;28;20055;-81
2023/08/19 00:22:50;;;;;;;0.25;0.10;;;;;;;31.89;100.00;101178.09;10436110;28;20049;-81
2023/08/19 00:27:52;;;;;;;0.65;0.57;;;;;;;31.96;100.00;101171.44;10435430;28;20072;-81
2023/08/19 00:32:53;;;;;;;0.35;0.30;;;;;;;32.14;100.00;101165.91;10441574;28;20071;-81
2023/08/19 00:37:55;;;;;;;0.38;0.22;;;;;;;31.93;100.00;101170.78;10425156;28;20048;-80
2023/08/19 00:42:57;;;;;;;0.30;0.30;;;;;;;31.82;100.00;101173.22;10441881;28;20499;-80
2023/08/19 00:47:59;;;;;;;0.40;0.35;;;;;;;31.49;100.00;101175.97;10400272;28;20045;-81
2023/08/19 00:53:03;;;;;;;0.20;0.10;;;;;;;31.40;100.00;101178.28;10451930;28;20400;-81
2023/08/19 00:58:05;;;;;;;0.20;0.15;;;;;;;31.78;100.00;101175.19;10440703;28;20488;-80
2023/08/19 01:03:09;;;;;;;0.10;0.10;;;;;;;30.68;100.00;101182.22;10440558;28;20487;-81
2023/08/19 01:08:16;;;;;;;0.20;0.20;;;;;;;30.92;100.00;101176.50;10440336;28;20571;-81
2023/08/19 01:13:20;;;;;;;0.15;0.15;;;;;;;30.60;100.00;101179.13;10440477;28;20408;-81
2023/08/19 01:18:23;;;;;;;0.47;0.10;;;;;;;30.64;100.00;101172.69;10439420;28;20076;-81
2023/08/19 01:23:32;;;;;;;0.13;0.13;;;;;;;30.29;100.00;101155.97;10439647;28;20103;-81
2023/08/19 01:28:33;;;;;;;0.32;0.20;;;;;;;30.65;100.00;101163.78;10423155;28;20404;-81
2023/08/19 01:33:37;;;;;;;0.32;0.30;;;;;;;30.68;100.00;101166.28;10439190;28;20455;-81
2023/08/19 01:38:55;;;;;;;0.20;0.20;;;;;;;30.67;100.00;101161.88;10439279;28;20179;-81
2023/08/19 01:43:59;;;;;;;0.22;0.10;;;;;;;30.89;100.00;101160.69;10455851;28;20056;-81
2023/08/19 01:49:01;;;;;;;0.17;0.17;;;;;;;30.80;100.00;101158.53;10422386;28;20040;-81
2023/08/19 01:54:03;;;;;;;0.50;0.20;;;;;;;30.94;100.00;101163.94;10471844;28;20059;-81
2023/08/19 01:59:05;;;;;;;0.08;0.08;;;;;;;30.28;100.00;101151.59;10438099;28;20554;-81
2023/08/19 02:04:06;;;;;;;2.83;0.45;;;;;;;30.92;100.00;101151.69;10448529;28;20163;-81
2023/08/19 02:09:08;;;;;;;0.60;0.22;;;;;;;30.56;100.00;101158.97;10438375;28;20400;-80
2023/08/19 02:14:10;;;;;;;0.25;0.15;;;;;;;31.11;100.00;101159.50;10421915;28;20049;-81
2023/08/19 02:19:11;;;;;;;1.02;0.55;;;;;;;30.77;100.00;101150.75;10421749;28;20048;-81
2023/08/19 02:24:13;;;;;;;0.00;0.00;;;;;;;30.60;100.00;101152.53;10437979;28;20055;-81
2023/08/19 02:29:15;;;;;;;0.20;0.20;;;;;;;30.45;100.00;101127.63;10438260;28;20132;-81
2023/08/19 02:34:16;;;;;;;0.20;0.20;;;;;;;30.47;100.00;101116.91;10461106;28;20049;-81
2023/08/19 02:39:18;;;;;;;0.50;0.40;;;;;;;29.64;100.00;101112.34;10432756;28;20045;-82
2023/08/19 02:44:20;;;;;;;0.20;0.10;;;;;;;30.22;100.00;101120.88;10462778;28;20049;-81
2023/08/19 02:49:21;;;;;;;1.77;0.65;;;;;;;30.57;100.00;101118.13;10445923;28;20487;-81
2023/08/19 02:54:23;;;;;;;0.52;0.38;;;;;;;31.06;100.00;101119.00;10462974;28;20045;-81
2023/08/19 02:59:25;;;;;;;0.93;0.68;;;;;;;30.63;100.00;101096.53;10445704;28;20037;-81
2023/08/19 03:04:26;;;;;;;0.50;0.50;;;;;;;30.97;100.00;101094.63;10429559;28;20044;-81
2023/08/19 03:09:28;;;;;;;0.38;0.25;;;;;;;31.02;100.00;101110.31;10445193;28;20136;-81
2023/08/19 03:14:30;;;;;;;0.40;0.35;;;;;;;30.23;100.00;101099.53;10478521;28;20504;-82
2023/08/19 03:19:32;;;;;;;0.73;0.50;;;;;;;30.84;100.00;101098.94;10444903;28;20055;-81
2023/08/19 03:24:34;;;;;;;0.45;0.20;;;;;;;31.23;100.00;101100.28;10445021;28;20045;-81
2023/08/19 03:29:36;;;;;;;0.50;0.30;;;;;;;30.99;100.00;101106.03;10462850;28;20044;-81
2023/08/19 03:34:38;;;;;;;0.75;0.35;;;;;;;30.91;100.00;101102.97;10461426;28;20051;-81
2023/08/19 03:39:39;;;;;;;0.30;0.20;;;;;;;30.75;100.00;101104.75;10444448;28;20041;-82
2023/08/19 03:44:41;;;;;;;0.43;0.43;;;;;;;31.16;100.00;101098.94;10427505;28;20091;-81
2023/08/19 03:49:43;;;;;;;0.32;0.32;;;;;;;30.69;100.00;101090.88;10427726;28;20139;-82
2023/08/19 03:54:44;;;;;;;0.70;0.57;;;;;;;30.27;100.00;101084.28;10444051;28;20051;-82
2023/08/19 03:59:50;;;;;;;0.17;0.17;;;;;;;29.73;100.00;101085.34;10443634;28;20550;-82
2023/08/19 04:05:00;;;;;;;0.68;0.52;;;;;;;30.44;100.00;101086.03;10443826;28;20052;-81
2023/08/19 04:10:03;;;;;;;0.70;0.50;;;;;;;30.75;100.00;101094.13;10443194;28;20045;-81
2023/08/19 04:15:06;;;;;;;0.13;0.13;;;;;;;30.89;100.00;101091.53;10427069;28;20056;-81
2023/08/19 04:27:07;;;;;;;0.43;0.40;;;;;;;30.81;100.00;101109.72;10460904;28;20045;-81
2023/08/19 04:32:09;;;;;;;0.25;0.20;;;;;;;31.18;100.00;101107.66;10442449;28;20044;-82
2023/08/19 04:37:12;;;;;;;0.28;0.28;;;;;;;30.70;100.00;101108.56;10442611;28;20052;-82
2023/08/19 04:42:16;;;;;;;0.55;0.55;;;;;;;30.86;100.00;101094.41;10425882;28;20151;-82
2023/08/19 04:47:17;;;;;;;0.20;0.20;;;;;;;30.42;100.00;101089.72;10442201;28;20411;-82
2023/08/19 04:52:20;;;;;;;0.68;0.25;;;;;;;30.77;100.00;101097.56;10441627;28;20044;-81
2023/08/19 04:57:22;;;;;;;0.57;0.45;;;;;;;31.35;100.00;101081.88;10440992;28;20047;-82
2023/08/19 05:02:24;;;;;;;0.52;0.30;;;;;;;31.86;100.00;101074.38;10425169;28;20049;-82
2023/08/19 05:07:26;;;;;;;0.32;0.30;;;;;;;31.81;100.00;101089.78;10442073;28;20060;-81
2023/08/19 05:12:28;;;;;;;0.15;0.13;;;;;;;31.08;100.00;101095.81;10424349;28;20052;-82
2023/08/19 05:17:30;;;;;;;0.35;0.22;;;;;;;32.31;100.00;101100.09;10440537;28;20136;-81
2023/08/19 05:22:32;;;;;;;0.47;0.25;;;;;;;30.93;100.00;101103.75;10458504;28;20037;-82
2023/08/19 05:27:34;;;;;;;0.32;0.20;;;;;;;31.51;100.00;101109.28;10440176;28;20476;-82
2023/08/19 05:32:36;;;;;;;0.70;0.30;;;;;;;31.38;100.00;101103.00;10439957;28;20480;-82
2023/08/19 05:37:38;;;;;;;0.38;0.38;;;;;;;30.98;100.00;101111.44;10423367;28;20053;-82
2023/08/19 05:42:39;;;;;;;0.65;0.50;;;;;;;31.15;100.00;101107.84;10439725;28;20051;-82
2023/08/19 05:47:41;;;;;;;0.85;0.50;;;;;;;31.21;100.00;101117.25;10457899;28;20052;-82
2023/08/19 05:52:43;;;;;;;0.43;0.20;;;;;;;32.10;100.00;101138.59;10457294;28;20095;-81
2023/08/19 05:57:44;;;;;;;0.43;0.13;;;;;;;31.41;100.00;101140.06;10439601;28;20060;-82
2023/08/19 06:02:46;;;;;;;0.30;0.30;;;;;;;32.01;100.00;101133.00;10456797;28;20037;-82
2023/08/19 06:07:48;;;;;;;0.20;0.10;;;;;;;32.40;100.00;101139.50;10439824;28;20115;-82
2023/08/19 06:12:50;;;;;;;0.10;0.10;;;;;;;32.55;100.00;101146.53;10439461;28;20140;-82
2023/08/19 06:17:55;;;;;;;0.10;0.10;;;;;;;32.40;100.00;101142.16;10456557;28;20049;-82
2023/08/19 06:22:56;;;;;;;0.70;0.30;;;;;;;32.41;100.00;101146.56;10456210;28;20522;-82
2023/08/19 06:27:58;;;;;;;0.30;0.20;;;;;;;32.66;100.00;101150.31;10438437;28;20060;-82
2023/08/19 06:33:04;;;;;;;1.13;0.55;;;;;;;32.97;100.00;101151.03;10438831;28;20047;-82
2023/08/19 06:38:13;;;;;;;0.63;0.32;;;;;;;32.62;100.00;101151.47;10438260;28;20492;-83
2023/08/19 06:43:17;;;;;;;0.40;0.40;;;;;;;32.78;100.00;101160.25;10455971;28;20048;-82
2023/08/19 06:48:21;;;;;;;1.27;0.50;;;;;;;32.63;100.00;101150.53;10421787;28;20063;-82
2023/08/19 06:53:23;;;;;;;0.90;0.55;;;;;;;32.18;100.00;101139.94;10437162;28;20077;-83
2023/08/19 06:58:30;;;;;;;0.00;0.00;;;;;;;31.28;100.00;101150.56;10420966;28;20607;-82
2023/08/19 07:03:33;;;;;;;1.08;0.63;;;;;;;32.09;100.00;101152.03;10437828;28;20480;-83
2023/08/19 07:08:39;;;;;;;0.47;0.47;;;;;;;31.66;100.00;101151.97;10454760;28;20407;-83
2023/08/19 07:13:43;;;;;;;0.25;0.20;;;;;;;31.43;100.00;101155.00;10436643;28;20563;-84
2023/08/19 07:18:47;;;;;;;0.10;0.10;;;;;;;32.04;100.00;101156.78;10440876;28;20041;-82
2023/08/19 07:23:52;;;;;;;0.20;0.20;;;;;;;32.93;100.00;101154.88;10478832;23;20133;-77
2023/08/19 07:28:55;;;;;;;1.02;0.55;;;;;;;32.60;100.00;101151.56;10482952;28;20061;-78
2023/08/19 07:33:58;;;;;;;4.20;1.55;;;;;;;31.92;100.00;101153.06;10474922;28;20174;-78
2023/08/19 07:39:01;;;;;;;0.60;0.40;;;;;;;32.86;100.00;101157.94;10474323;28;20518;-77
2023/08/19 07:44:02;;;;;;;0.13;0.10;;;;;;;33.03;100.00;101169.31;10473504;28;20044;-77
2023/08/19 07:49:04;;;;;;;0.28;0.20;;;;;;;32.43;100.00;101171.31;10484541;28;20055;-78
2023/08/19 07:54:05;;;;;;;0.17;0.17;;;;;;;33.07;100.00;101176.19;10470189;28;20052;-79
2023/08/19 07:59:07;;;;;;;0.30;0.10;;;;;;;32.81;100.00;101181.38;10446377;28;20102;-79
2023/08/19 08:04:08;;;;;;;0.20;0.20;;;;;;;33.14;100.00;101188.16;10465424;28;20049;-79
2023/08/19 08:09:10;;;;;;;0.98;0.47;;;;;;;33.02;100.00;101186.31;10471344;28;20057;-78
2023/08/19 08:14:12;;;;;;;0.40;0.32;;;;;;;33.72;100.00;101187.94;10484374;28;20125;-78
2023/08/19 08:19:13;;;;;;;0.65;0.30;;;;;;;33.24;100.00;101190.25;10490759;28;20052;-79
2023/08/19 08:24:15;;;;;;;0.35;0.25;;;;;;;32.95;100.00;101187.66;10470853;28;20048;-81
2023/08/19 08:29:17;;;;;;;0.40;0.30;;;;;;;33.27;100.00;101190.00;10473424;28;20044;-78
2023/08/19 08:34:18;;;;;;;0.15;0.10;;;;;;;33.13;100.00;101191.78;10473430;28;20048;-81
2023/08/19 08:39:20;;;;;;;0.63;0.40;;;;;;;32.79;100.00;101207.31;10484779;28;20052;-81
2023/08/19 08:44:24;;;;;;;0.43;0.25;;;;;;;33.79;100.00;101221.28;10487009;28;20518;-81
2023/08/19 08:49:27;;;;;;;0.70;0.38;;;;;;;34.44;100.00;101213.38;10467940;28;20097;-80
2023/08/19 08:54:32;;;;;;;0.57;0.32;;;;;;;34.14;100.00;101223.38;10468692;28;20163;-81
2023/08/19 08:59:34;;;;;;;0.60;0.40;;;;;;;35.26;100.00;101211.03;10463684;28;20045;-79
2023/08/19 09:04:36;;;;;;;0.50;0.50;;;;;;;34.60;100.00;101223.81;10466242;28;20064;-82
2023/08/19 09:09:41;;;;;;;0.10;0.10;;;;;;;32.92;100.00;101244.72;10485373;28;20033;-81
2023/08/19 09:14:44;;;;;;;0.20;0.20;;;;;;;33.57;100.00;101245.06;10464383;28;20045;-81
2023/08/19 09:19:46;;;;;;;0.73;0.50;;;;;;;34.59;100.00;101251.56;10463402;28;20074;-81
2023/08/19 09:24:48;;;;;;;0.50;0.38;;;;;;;34.26;100.00;101245.75;10463386;28;20060;-81
2023/08/19 09:29:50;;;;;;;0.75;0.47;;;;;;;33.89;100.00;101242.09;10482623;28;20098;-81
2023/08/19 09:35:00;;;;;;;1.40;0.95;;;;;;;34.86;100.00;101229.97;10471183;28;20106;-77
2023/08/19 09:40:08;;;;;;;1.20;0.57;;;;;;;33.72;100.00;101251.22;10458589;28;20044;-80
2023/08/19 09:45:16;;;;;;;1.88;1.00;;;;;;;36.78;100.00;101263.00;10476898;28;20052;-82
2023/08/19 09:50:21;;;;;;;0.25;0.20;;;;;;;35.83;100.00;101286.31;10460332;28;20037;-81
2023/08/19 09:55:28;;;;;;;0.47;0.40;;;;;;;35.96;100.00;101299.69;10454829;28;20434;-81
2023/08/19 10:00:29;;;;;;;0.28;0.28;;;;;;;36.33;100.00;101302.22;10476569;28;20065;-80
2023/08/19 10:05:34;;;;;;;0.20;0.20;;;;;;;35.89;100.00;101319.84;10440524;28;20044;-78
2023/08/19 10:10:39;;;;;;;2.38;0.65;;;;;;;35.57;100.00;101339.19;10481910;28;20253;-80
2023/08/19 10:15:42;;;;;;;0.40;0.30;;;;;;;35.92;100.00;101327.72;10482732;28;20052;-78
2023/08/19 10:20:51;;;;;;;1.17;0.40;;;;;;;35.48;100.00;101329.16;10477586;28;20518;-79
2023/08/19 10:25:53;;;;;;;0.50;0.43;;;;;;;35.17;100.00;101309.94;10479587;28;20048;-79
2023/08/19 10:31:15;;;;;;;2.65;0.35;;;;;;;36.86;100.00;101284.72;10484733;28;20032;-79
2023/08/19 10:36:18;;;;;;;0.57;0.50;;;;;;;37.09;100.00;101268.59;10483104;28;20056;-79
2023/08/19 10:41:29;;;;;;;0.10;0.10;;;;;;;38.33;100.00;101277.16;10481995;28;20037;-79
2023/08/19 10:46:41;;;;;;;0.40;0.30;;;;;;;38.29;100.00;101275.69;10478426;28;20411;-80
2023/08/19 10:51:47;;;;;;;0.10;0.10;;;;;;;39.07;100.00;101300.28;10476314;28;20059;-80
2023/08/19 10:57:03;;;;;;;0.80;0.50;;;;;;;37.56;100.00;101324.81;10488910;28;20149;-80
2023/08/19 11:02:05;;;;;;;0.35;0.32;;;;;;;34.98;100.00;101329.16;10483648;28;20048;-79
2023/08/19 11:07:07;;;;;;;0.43;0.35;;;;;;;33.00;100.00;101337.66;10450500;28;20126;-81
2023/08/19 11:12:11;;;;;;;1.35;0.88;;;;;;;33.05;100.00;101338.22;10489656;28;20161;-81
2023/08/19 11:17:12;;;;;;;1.35;1.02;;;;;;;33.62;100.00;101347.13;10495150;28;20075;-80
2023/08/19 11:22:16;;;;;;;1.27;0.40;;;;;;;33.17;100.00;101352.59;10463344;28;20582;-78
2023/08/19 11:27:19;;;;;;;1.48;1.15;;;;;;;34.59;100.00;101355.91;10474271;28;20059;-79
2023/08/19 11:32:20;;;;;;;3.92;1.05;;;;;;;34.54;100.00;101366.03;10492290;28;20051;-78
2023/08/19 11:37:22;;;;;;;1.38;1.08;;;;;;;33.47;100.00;101370.34;10485185;28;20045;-79
2023/08/19 11:42:26;;;;;;;1.52;1.15;;;;;;;33.27;100.00;101391.13;10487936;28;20773;-77
2023/08/19 11:47:33;;;;;;;0.82;0.60;;;;;;;33.57;100.00;101397.31;10475193;28;20117;-79
2023/08/19 11:52:35;;;;;;;1.35;0.77;;;;;;;33.84;100.00;101405.41;10463284;28;20127;-79
2023/08/19 11:57:37;;;;;;;1.08;0.75;;;;;;;34.56;100.00;101417.63;10475805;28;20045;-80
2023/08/19 12:02:39;;;;;;;0.40;0.40;;;;;;;33.89;100.00;101445.19;10476532;28;20044;-79
2023/08/19 12:07:43;;;;;;;1.55;1.00;;;;;;;34.12;100.00;101460.59;10480594;28;20076;-80
2023/08/19 12:12:58;;;;;;;1.30;1.05;;;;;;;34.62;100.00;101476.06;10469423;28;20418;-81
2023/08/19 12:18:00;;;;;;;0.73;0.40;;;;;;;34.48;100.00;101480.53;10465076;28;20048;-81
2023/08/19 12:23:02;;;;;;;0.57;0.57;;;;;;;35.61;100.00;101484.50;10483972;28;20072;-81
2023/08/19 12:28:03;;;;;;;0.80;0.80;;;;;;;34.19;100.00;101484.25;10489729;28;20048;-79
2023/08/19 12:33:05;;;;;;;1.13;0.35;;;;;;;34.52;100.00;101491.88;10469387;28;20055;-79
2023/08/19 12:38:08;;;;;;;1.02;0.70;;;;;;;35.09;100.00;101506.81;10490684;28;20098;-79
2023/08/19 12:43:10;;;;;;;1.45;1.17;;;;;;;35.00;100.00;101523.50;10474874;28;20457;-79
2023/08/19 12:48:12;;;;;;;0.98;0.73;;;;;;;34.55;100.00;101560.38;10479915;28;20048;-79
2023/08/19 12:53:13;;;;;;;1.75;1.33;;;;;;;33.66;100.00;101575.72;10469994;28;20041;-80
2023/08/19 12:58:15;;;;;;;1.08;0.95;;;;;;;33.78;100.00;101576.78;10487850;28;20118;-79
2023/08/19 13:03:16;;;;;;;1.58;1.02;;;;;;;33.92;100.00;101583.97;10478779;28;20044;-80
2023/08/19 13:08:18;;;;;;;3.78;1.70;;;;;;;33.96;100.00;101577.47;10481438;28;20487;-79
2023/08/19 13:13:20;;;;;;;0.98;0.88;;;;;;;34.62;100.00;101586.66;10444548;28;20045;-79
2023/08/19 13:18:22;;;;;;;1.90;1.20;;;;;;;33.93;100.00;101601.72;10460031;28;20047;-80
2023/08/19 13:23:23;;;;;;;2.10;1.65;;;;;;;32.98;100.00;101603.75;10460769;28;20584;-80
2023/08/19 13:28:25;;;;;;;0.98;0.88;;;;;;;33.53;100.00;101610.34;10480296;28;20141;-79
2023/08/19 13:33:26;;;;;;;1.58;1.10;;;;;;;33.33;100.00;101596.38;10461736;28;20527;-78
2023/08/19 13:38:28;;;;;;;0.80;0.77;;;;;;;33.74;100.00;101604.63;10455279;28;20113;-80
2023/08/19 13:43:30;;;;;;;0.32;0.30;;;;;;;33.41;100.00;101603.91;10457609;28;20037;-79
2023/08/19 13:48:32;;;;;;;0.85;0.63;;;;;;;33.14;100.00;101609.94;10474488;28;20040;-79
2023/08/19 13:53:33;;;;;;;0.80;0.60;;;;;;;32.92;100.00;101614.78;10481243;28;20431;-78
2023/08/19 13:58:35;;;;;;;0.80;0.68;;;;;;;32.94;100.00;101636.94;10483634;28;20043;-79
2023/08/19 14:03:36;;;;;;;2.10;1.38;;;;;;;33.12;100.00;101637.66;10467029;28;20495;-79
2023/08/19 14:08:39;;;;;;;1.00;0.93;;;;;;;32.83;100.00;101656.22;10477864;28;20063;-80
2023/08/19 14:13:41;;;;;;;0.43;0.40;;;;;;;32.89;100.00;101643.38;10474931;28;20408;-79
2023/08/19 14:18:43;;;;;;;1.13;0.70;;;;;;;32.57;100.00;101664.72;10461345;28;20138;-80
2023/08/19 14:23:44;;;;;;;0.10;0.10;;;;;;;33.18;100.00;101664.84;10455943;28;20049;-78
2023/08/19 14:28:46;;;;;;;2.17;0.73;;;;;;;33.12;100.00;101670.53;10488252;28;20045;-79
2023/08/19 14:33:47;;;;;;;1.13;0.43;;;;;;;33.21;100.00;101655.81;10499490;28;20487;-79
2023/08/19 14:38:49;;;;;;;0.50;0.30;;;;;;;32.76;100.00;101658.34;10470489;28;20056;-78
2023/08/19 14:43:50;;;;;;;0.70;0.57;;;;;;;31.92;100.00;101689.44;10500944;28;20093;-79
2023/08/19 14:48:52;;;;;;;0.30;0.30;;;;;;;31.80;100.00;101679.44;10474958;28;20086;-79
2023/08/19 14:53:53;;;;;;;0.80;0.22;;;;;;;31.75;100.00;101708.97;10500257;28;20052;-79
2023/08/19 14:58:55;;;;;;;0.00;0.00;;;;;;;32.26;100.00;101714.38;10459100;28;20052;-79
2023/08/19 15:03:56;;;;;;;1.85;0.40;;;;;;;32.37;100.00;101668.47;10468648;28;20040;-80
2023/08/19 15:08:58;;;;;;;0.10;0.08;;;;;;;32.81;100.00;101570.91;10496532;28;20790;-79
2023/08/19 15:14:00;;;;;;;0.10;0.10;;;;;;;32.39;100.00;101657.72;10486637;28;20041;-80
2023/08/19 15:19:03;;;;;;;0.15;0.15;;;;;;;33.04;100.00;101680.81;10479902;28;20053;-78
2023/08/19 15:24:05;;;;;;;0.77;0.47;;;;;;;33.17;100.00;101676.50;10497332;28;20055;-80
2023/08/19 15:29:07;;;;;;;0.88;0.35;;;;;;;33.49;100.00;101664.91;10483817;28;20048;-78
2023/08/19 15:34:08;;;;;;;0.10;0.10;;;;;;;32.90;100.00;101677.13;10470640;28;20051;-77
2023/08/19 15:39:10;;;;;;;0.20;0.20;;;;;;;33.40;100.00;101673.44;10489162;28;20094;-80
2023/08/19 15:44:11;;;;;;;0.08;0.08;;;;;;;32.99;100.00;101681.06;10473591;28;20495;-81
2023/08/19 15:49:13;;;;;;;0.10;0.10;;;;;;;33.17;100.00;101700.53;10476730;28;20048;-77
2023/08/19 15:54:14;;;;;;;0.05;0.05;;;;;;;32.64;100.00;101704.38;10469713;28;20109;-78
2023/08/19 15:59:16;;;;;;;0.38;0.10;;;;;;;33.55;100.00;101693.06;10460903;28;20052;-80
2023/08/19 16:04:18;;;;;;;0.00;0.00;;;;;;;33.46;100.00;101700.69;10472580;28;20800;-78
2023/08/19 16:09:19;;;;;;;0.00;0.00;;;;;;;33.19;100.00;101709.28;10487381;28;20461;-77
2023/08/19 16:14:21;;;;;;;0.00;0.00;;;;;;;33.19;100.00;101708.44;10489954;28;20047;-78
2023/08/19 16:19:22;;;;;;;1.45;0.80;;;;;;;32.93;100.00;101707.25;10471857;28;20040;-77
2023/08/19 16:24:24;;;;;;;0.00;0.00;;;;;;;32.83;100.00;101718.44;10478328;28;20041;-78
2023/08/19 16:29:27;;;;;;;0.20;0.20;;;;;;;32.78;100.00;101728.50;10484327;28;20041;-78
2023/08/19 16:34:29;;;;;;;0.00;0.00;;;;;;;32.98;100.00;101732.75;10483801;28;20044;-77
2023/08/19 16:39:31;;;;;;;0.68;0.20;;;;;;;32.54;100.00;101728.88;10485725;28;20036;-79
2023/08/19 16:44:33;;;;;;;0.00;0.00;;;;;;;31.41;100.00;101731.09;10492851;28;20044;-79
2023/08/19 16:49:35;;;;;;;0.00;0.00;;;;;;;32.55;100.00;101729.72;10454674;28;20475;-81
2023/08/19 16:54:36;;;;;;;0.00;0.00;;;;;;;32.17;100.00;101730.81;10478245;28;20411;-79
2023/08/19 16:59:38;;;;;;;0.00;0.00;;;;;;;32.63;100.00;101734.66;10494636;28;20102;-80
2023/08/19 17:04:46;;;;;;;0.00;0.00;;;;;;;32.73;100.00;101738.53;10494910;28;20117;-79
2023/08/19 17:09:48;;;;;;;0.00;0.00;;;;;;;32.00;100.00;101738.81;10476946;28;20121;-80
2023/08/19 17:14:50;;;;;;;0.08;0.08;;;;;;;32.80;100.00;101731.97;10495730;28;20188;-79
2023/08/19 17:19:51;;;;;;;0.00;0.00;;;;;;;33.32;100.00;101740.69;10485583;28;20044;-79
2023/08/19 17:24:53;;;;;;;0.00;0.00;;;;;;;32.67;100.00;101744.19;10463792;28;20078;-80
2023/08/19 17:29:54;;;;;;;0.00;0.00;;;;;;;32.12;100.00;101741.72;10490398;28;20055;-80
2023/08/19 17:34:56;;;;;;;0.03;0.00;;;;;;;32.45;100.00;101756.03;10493837;28;20097;-79
2023/08/19 17:39:58;;;;;;;0.00;0.00;;;;;;;32.87;100.00;101770.72;10475723;28;20418;-78
2023/08/19 17:44:59;;;;;;;0.00;0.00;;;;;;;32.99;100.00;101773.63;10490176;28;20044;-79
2023/08/19 17:50:02;;;;;;;0.00;0.00;;;;;;;33.47;100.00;101777.16;10470916;28;20570;-80
2023/08/19 17:55:04;;;;;;;0.00;0.00;;;;;;;32.93;100.00;101785.50;10474374;28;20491;-79
2023/08/19 18:00:06;;;;;;;0.00;0.00;;;;;;;32.54;100.00;101792.03;10460261;28;20048;-79
2023/08/19 18:05:14;;;;;;;0.00;0.00;;;;;;;31.56;100.00;101791.56;10484461;28;20048;-79
2023/08/19 18:10:15;;;;;;;0.00;0.00;;;;;;;31.29;100.00;101789.31;10491938;28;20056;-79
2023/08/19 18:15:17;;;;;;;0.17;0.00;;;;;;;31.48;100.00;101794.63;10490668;28;20736;-78
2023/08/19 18:20:19;;;;;;;0.10;0.00;;;;;;;32.30;100.00;101799.50;10459505;28;20059;-78
2023/08/19 18:25:21;;;;;;;0.00;0.00;;;;;;;32.02;100.00;101806.22;10473737;28;20045;-79
2023/08/19 18:30:22;;;;;;;0.00;0.00;;;;;;;30.97;100.00;101812.94;10474762;28;20052;-78
2023/08/19 18:35:24;;;;;;;0.00;0.00;;;;;;;31.17;100.00;101808.53;10493565;28;20671;-80
2023/08/19 18:40:27;;;;;;;0.00;0.00;;;;;;;31.74;100.00;101820.94;10490679;28;20055;-79
2023/08/19 18:45:29;;;;;;;0.00;0.00;;;;;;;31.14;100.00;101827.31;10462313;28;20539;-79
2023/08/19 18:50:32;;;;;;;0.00;0.00;;;;;;;31.51;100.00;101838.88;10493298;28;20094;-79
2023/08/19 18:55:37;;;;;;;0.00;0.00;;;;;;;31.19;100.00;101838.59;10492779;28;20128;-79
2023/08/19 19:00:38;;;;;;;0.00;0.00;;;;;;;30.81;100.00;101844.72;10460806;28;20037;-79
2023/08/19 19:05:40;;;;;;;0.00;0.00;;;;;;;30.75;100.00;101849.44;10485785;28;20043;-80
2023/08/19 19:10:41;;;;;;;0.00;0.00;;;;;;;30.83;100.00;101853.47;10482216;28;20102;-78
2023/08/19 19:15:43;;;;;;;0.00;0.00;;;;;;;30.79;100.00;101862.53;10496879;28;20102;-79
2023/08/19 19:20:45;;;;;;;0.00;0.00;;;;;;;30.54;100.00;101870.72;10482013;28;20052;-79
2023/08/19 19:25:47;;;;;;;0.20;0.00;;;;;;;29.53;100.00;101874.75;10499458;28;20044;-80
2023/08/19 19:30:48;;;;;;;0.10;0.00;;;;;;;28.88;100.00;101878.91;10489821;28;20045;-79
2023/08/19 19:35:50;;;;;;;0.00;0.00;;;;;;;29.66;100.00;101883.13;10479560;28;20048;-78
2023/08/19 19:40:51;;;;;;;0.00;0.00;;;;;;;28.80;100.00;101880.06;10449921;28;20071;-78
2023/08/19 19:45:53;;;;;;;0.00;0.00;;;;;;;27.67;100.00;101888.13;10497094;28;20560;-79
2023/08/19 19:50:55;;;;;;;0.00;0.00;;;;;;;29.72;100.00;101888.19;10477698;28;20055;-79
2023/08/19 19:55:56;;;;;;;0.00;0.00;;;;;;;29.57;100.00;101880.81;10499302;28;20161;-79
2023/08/19 20:00:58;;;;;;;0.65;0.52;;;;;;;28.87;100.00;101883.38;10492331;28;20044;-79
2023/08/19 20:05:59;;;;;;;0.00;0.00;;;;;;;28.75;100.00;101884.66;10463816;28;20098;-79
2023/08/19 20:11:02;;;;;;;0.10;0.08;;;;;;;28.79;100.00;101883.63;10492452;28;20056;-79
2023/08/19 20:16:03;;;;;;;0.00;0.00;;;;;;;28.76;100.00;101878.47;10458681;28;20444;-79
2023/08/19 20:21:05;;;;;;;0.45;0.05;;;;;;;28.05;100.00;101883.41;10467964;28;20060;-79
2023/08/19 20:26:07;;;;;;;0.00;0.00;;;;;;;27.64;100.00;101885.59;10454982;28;20142;-79
2023/08/19 20:31:08;;;;;;;0.05;0.05;;;;;;;28.16;100.00;101894.56;10467718;28;20509;-79
2023/08/19 20:36:10;;;;;;;0.00;0.00;;;;;;;28.16;100.00;101893.69;10467610;28;20048;-79
2023/08/19 20:41:11;;;;;;;0.00;0.00;;;;;;;28.44;100.00;101898.09;10477286;28;20110;-78
2023/08/19 20:46:13;;;;;;;0.00;0.00;;;;;;;28.28;100.00;101892.41;10468929;28;20460;-78
2023/08/19 20:51:14;;;;;;;0.00;0.00;;;;;;;27.74;100.00;101894.97;10481306;28;20152;-79
2023/08/19 20:56:16;;;;;;;0.13;0.03;;;;;;;28.03;100.00;101894.06;10482487;28;20048;-78
2023/08/19 21:01:18;;;;;;;0.10;0.10;;;;;;;27.53;100.00;101905.28;10487503;28;20045;-78
2023/08/19 21:06:20;;;;;;;0.00;0.00;;;;;;;27.68;100.00;101908.41;10481638;28;20131;-78
2023/08/19 21:11:21;;;;;;;0.00;0.00;;;;;;;27.50;100.00;101910.69;10473531;28;20102;-79
2023/08/19 21:16:23;;;;;;;0.00;0.00;;;;;;;26.75;100.00;101900.38;10464853;28;20113;-78
2023/08/19 21:21:24;;;;;;;0.15;0.10;;;;;;;25.74;100.00;101918.59;10474820;28;20682;-79
2023/08/19 21:26:26;;;;;;;0.10;0.10;;;;;;;27.54;100.00;101917.63;10492964;28;20048;-77
2023/08/19 21:31:28;;;;;;;0.13;0.10;;;;;;;27.32;100.00;101917.34;10487662;28;20040;-79
2023/08/19 21:36:29;;;;;;;0.00;0.00;;;;;;;27.58;100.00;101923.69;10486210;28;20115;-79
2023/08/19 21:41:31;;;;;;;0.00;0.00;;;;;;;26.87;100.00;101921.22;10461855;28;20503;-78
2023/08/19 21:46:33;;;;;;;0.32;0.00;;;;;;;26.76;100.00;101923.28;10471352;28;20124;-80
2023/08/19 21:51:35;;;;;;;0.00;0.00;;;;;;;25.79;100.00;101940.47;10481239;28;20036;-78
2023/08/19 21:56:36;;;;;;;0.00;0.00;;;;;;;27.26;100.00;101932.53;10475995;28;20048;-79
2023/08/19 22:01:38;;;;;;;0.00;0.00;;;;;;;27.40;100.00;101935.66;10466244;28;20063;-79
2023/08/19 22:06:40;;;;;;;0.00;0.00;;;;;;;27.35;100.00;101943.72;10492262;28;20110;-79
2023/08/19 22:11:42;;;;;;;0.22;0.22;;;;;;;26.69;100.00;101956.91;10485519;28;20044;-80
2023/08/19 22:16:43;;;;;;;0.00;0.00;;;;;;;26.53;100.00;101953.78;10487196;28;20051;-77
2023/08/19 22:21:45;;;;;;;0.00;0.00;;;;;;;26.38;100.00;101954.16;10476821;28;20511;-78
2023/08/19 22:26:47;;;;;;;0.00;0.00;;;;;;;26.93;100.00;101954.56;10472415;28;20086;-78
2023/08/19 22:31:48;;;;;;;0.22;0.15;;;;;;;27.02;100.00;101950.81;10476255;28;20091;-79
2023/08/19 22:36:50;;;;;;;0.10;0.10;;;;;;;26.22;100.00;101962.44;10482533;28;20868;-78
2023/08/19 22:41:51;;;;;;;0.00;0.00;;;;;;;26.58;100.00;101949.25;10490705;28;20086;-78
2023/08/19 22:46:53;;;;;;;0.00;0.00;;;;;;;27.26;100.00;101964.28;10473254;28;20049;-79
2023/08/19 22:51:58;;;;;;;0.00;0.00;;;;;;;25.93;100.00;101968.31;10479551;28;20056;-78
2023/08/19 22:57:00;;;;;;;0.00;0.00;;;;;;;26.65;100.00;101959.66;10480152;28;20098;-78
2023/08/19 23:02:02;;;;;;;0.00;0.00;;;;;;;26.35;100.00;101952.44;10471725;28;20052;-78